createdAt,value
2018-02-18T00:02:09.045Z,5.23
2018-02-18T00:04:36.513Z,4.63
2018-02-18T00:07:03.980Z,4.43
2018-02-18T00:09:31.454Z,4.25
2018-02-18T00:11:59.682Z,3.97
2018-02-18T00:14:31.719Z,3.53
2018-02-18T00:16:59.187Z,4.67
2018-02-18T00:19:26.666Z,4.80
2018-02-18T00:21:54.132Z,4.50
2018-02-18T00:24:21.615Z,4.47
2018-02-18T00:26:49.083Z,3.93
2018-02-18T00:29:16.557Z,3.70
2018-02-18T00:31:44.784Z,4.33
2018-02-18T00:34:12.251Z,3.78
2018-02-18T00:36:39.719Z,3.93
2018-02-18T00:39:07.186Z,3.53
2018-02-18T00:41:34.685Z,4.30
2018-02-18T00:44:02.910Z,3.67
2018-02-18T00:46:30.376Z,4.10
2018-02-18T00:48:57.842Z,4.10
2018-02-18T00:51:25.308Z,3.60
2018-02-18T00:53:53.553Z,5.33
2018-02-18T00:56:21.017Z,4.75
2018-02-18T00:58:48.503Z,4.35
2018-02-18T01:01:16.735Z,4.43
2018-02-18T01:03:44.204Z,3.80
2018-02-18T01:06:11.672Z,3.90
2018-02-18T01:08:39.133Z,3.47
2018-02-18T01:11:06.603Z,3.57
2018-02-18T01:13:34.842Z,3.40
2018-02-18T01:16:02.319Z,4.30
2018-02-18T01:18:29.778Z,3.90
2018-02-18T01:20:57.248Z,3.67
2018-02-18T01:23:24.711Z,3.77
2018-02-18T01:25:52.963Z,3.40
2018-02-18T01:28:20.422Z,4.20
2018-02-18T01:30:47.898Z,3.43
2018-02-18T01:33:15.354Z,4.70
2018-02-18T01:35:42.831Z,3.63
2018-02-18T01:38:11.058Z,4.00
2018-02-18T01:40:38.538Z,3.80
2018-02-18T01:43:06.013Z,4.73
2018-02-18T01:45:34.256Z,4.25
2018-02-18T01:48:01.723Z,3.80
2018-02-18T01:50:36.261Z,3.37
2018-02-18T01:53:03.732Z,3.70
2018-02-18T01:55:31.980Z,3.75
2018-02-18T01:57:59.430Z,3.83
2018-02-18T02:00:26.921Z,3.58
2018-02-18T02:02:55.139Z,3.97
2018-02-18T02:05:23.377Z,4.18
2018-02-18T02:07:51.625Z,3.93
2018-02-18T02:10:19.083Z,4.07
2018-02-18T02:12:46.560Z,4.35
2018-02-18T02:15:14.791Z,3.93
2018-02-18T02:17:42.254Z,3.97
2018-02-18T02:20:09.727Z,4.50
2018-02-18T02:22:37.206Z,3.80
2018-02-18T02:25:05.438Z,4.53
2018-02-18T02:27:32.915Z,4.07
2018-02-18T02:30:00.376Z,3.83
2018-02-18T02:32:27.857Z,3.53
2018-02-18T02:34:56.098Z,3.87
2018-02-18T02:37:23.574Z,3.58
2018-02-18T02:39:51.051Z,4.00
2018-02-18T02:42:19.299Z,4.03
2018-02-18T02:44:46.764Z,3.58
2018-02-18T02:47:14.249Z,3.67
2018-02-18T02:49:42.476Z,3.70
2018-02-18T02:52:09.942Z,3.95
2018-02-18T02:54:37.418Z,3.65
2018-02-18T02:57:04.899Z,3.97
2018-02-18T02:59:33.136Z,3.60
2018-02-18T03:02:00.622Z,3.47
2018-02-18T03:04:28.086Z,3.58
2018-02-18T03:06:56.344Z,3.90
2018-02-18T03:09:23.818Z,3.37
2018-02-18T03:11:51.283Z,3.42
2018-02-18T03:14:19.511Z,3.42
2018-02-18T03:16:46.993Z,3.75
2018-02-18T03:19:14.466Z,3.20
2018-02-18T03:21:42.704Z,3.35
2018-02-18T03:24:10.176Z,4.00
2018-02-18T03:26:37.637Z,3.75
2018-02-18T03:29:05.131Z,3.37
2018-02-18T03:31:33.363Z,3.00
2018-02-18T03:34:00.831Z,3.35
2018-02-18T03:36:28.287Z,3.50
2018-02-18T03:38:55.769Z,3.72
2018-02-18T03:41:23.226Z,2.92
2018-02-18T03:43:50.686Z,2.97
2018-02-18T03:46:18.913Z,3.50
2018-02-18T03:48:46.390Z,3.50
2018-02-18T03:51:13.851Z,2.72
2018-02-18T03:53:41.315Z,3.40
2018-02-18T03:56:08.793Z,3.47
2018-02-18T03:58:37.030Z,3.10
2018-02-18T04:01:04.490Z,2.87
2018-02-18T04:03:31.969Z,2.90
2018-02-18T04:05:59.437Z,3.22
2018-02-18T04:08:26.903Z,3.00
2018-02-18T04:10:54.354Z,2.83
2018-02-18T04:13:21.827Z,3.58
2018-02-18T04:15:50.060Z,3.58
2018-02-18T04:18:17.524Z,3.50
2018-02-18T04:20:44.992Z,3.10
2018-02-18T04:23:12.470Z,3.17
2018-02-18T04:25:40.720Z,2.90
2018-02-18T04:28:08.171Z,3.15
2018-02-18T04:30:35.662Z,3.22
2018-02-18T04:33:03.135Z,2.58
2018-02-18T04:35:31.380Z,2.55
2018-02-18T04:37:58.847Z,2.83
2018-02-18T04:40:26.314Z,2.78
2018-02-18T04:42:54.551Z,3.12
2018-02-18T04:45:22.022Z,2.62
2018-02-18T04:47:49.485Z,3.17
2018-02-18T04:50:16.962Z,2.75
2018-02-18T04:52:44.436Z,2.83
2018-02-18T04:55:12.692Z,3.08
2018-02-18T04:57:40.137Z,2.55
2018-02-18T05:00:07.623Z,2.70
2018-02-18T05:02:35.846Z,2.12
2018-02-18T05:05:03.326Z,2.12
2018-02-18T05:07:30.796Z,2.50
2018-02-18T05:09:58.287Z,2.20
2018-02-18T05:12:25.763Z,2.70
2018-02-18T05:14:53.232Z,2.28
2018-02-18T05:17:20.711Z,2.30
2018-02-18T05:19:48.178Z,3.10
2018-02-18T05:22:15.645Z,2.28
2018-02-18T05:24:43.106Z,2.55
2018-02-18T05:27:10.582Z,2.75
2018-02-18T05:29:38.806Z,2.40
2018-02-18T05:32:06.275Z,2.80
2018-02-18T05:34:33.747Z,3.00
2018-02-18T05:37:01.219Z,2.40
2018-02-18T05:39:28.688Z,2.78
2018-02-18T05:41:56.914Z,2.95
2018-02-18T05:44:24.374Z,2.80
2018-02-18T05:46:51.847Z,2.70
2018-02-18T05:49:19.308Z,3.15
2018-02-18T05:51:46.780Z,2.33
2018-02-18T05:54:14.238Z,2.60
2018-02-18T05:56:41.754Z,3.00
2018-02-18T05:59:09.220Z,2.55
2018-02-18T06:01:36.694Z,2.62
2018-02-18T06:04:04.158Z,2.37
2018-02-18T06:06:31.626Z,2.50
2018-02-18T06:08:59.089Z,2.90
2018-02-18T06:11:27.319Z,2.70
2018-02-18T06:13:54.786Z,3.17
2018-02-18T06:16:22.250Z,2.75
2018-02-18T06:18:49.722Z,2.78
2018-02-18T06:21:17.182Z,3.05
2018-02-18T06:23:44.660Z,2.83
2018-02-18T06:26:12.905Z,2.80
2018-02-18T06:28:40.367Z,3.15
2018-02-18T06:31:07.834Z,3.22
2018-02-18T06:33:35.322Z,3.03
2018-02-18T06:36:04.039Z,2.85
2018-02-18T06:38:32.011Z,2.37
2018-02-18T06:40:59.975Z,2.95
2018-02-18T06:43:35.318Z,2.95
2018-02-18T06:46:03.598Z,3.58
2018-02-18T06:48:31.775Z,3.33
2018-02-18T06:50:59.759Z,3.03
2018-02-18T06:53:27.921Z,3.42
2018-02-18T06:55:55.886Z,2.75
2018-02-18T06:58:24.060Z,3.15
2018-02-18T07:06:39.383Z,2.75
2018-02-18T07:09:07.346Z,3.12
2018-02-18T07:11:35.315Z,3.35
2018-02-18T07:14:03.287Z,3.75
2018-02-18T07:16:31.250Z,3.42
2018-02-18T07:19:04.551Z,2.80
2018-02-18T07:21:32.523Z,3.20
2018-02-18T07:24:00.829Z,3.35
2018-02-18T07:26:28.282Z,2.67
2018-02-18T07:28:55.764Z,2.78
2018-02-18T07:31:23.246Z,3.15
2018-02-18T07:33:50.706Z,3.60
2018-02-18T07:36:18.182Z,3.30
2018-02-18T07:38:45.636Z,3.50
2018-02-18T07:41:13.112Z,3.00
2018-02-18T07:43:40.566Z,3.40
2018-02-18T07:46:08.039Z,3.50
2018-02-18T07:48:35.504Z,3.95
2018-02-18T07:51:02.972Z,4.05
2018-02-18T07:53:30.446Z,3.50
2018-02-18T07:55:59.179Z,3.50
2018-02-18T07:58:26.647Z,3.65
2018-02-18T08:03:35.778Z,4.40
2018-02-18T08:06:03.259Z,4.35
2018-02-18T08:08:30.742Z,5.50
2018-02-18T08:10:58.203Z,6.80
2018-02-18T08:13:25.669Z,5.30
2018-02-18T08:15:53.908Z,4.53
2018-02-18T08:18:21.385Z,4.20
2018-02-18T08:20:48.878Z,4.10
2018-02-18T08:23:17.115Z,4.97
2018-02-18T08:25:44.612Z,5.70
2018-02-18T08:28:13.753Z,4.68
2018-02-18T08:30:41.206Z,4.47
2018-02-18T08:33:08.702Z,3.95
2018-02-18T08:35:36.164Z,5.00
2018-02-18T08:38:03.663Z,4.30
2018-02-18T08:40:31.146Z,3.50
2018-02-18T08:42:58.620Z,3.90
2018-02-18T08:45:26.082Z,4.30
2018-02-18T08:47:53.553Z,4.07
2018-02-18T08:50:21.021Z,4.30
2018-02-18T08:52:49.262Z,3.87
2018-02-18T08:55:16.719Z,3.30
2018-02-18T08:57:44.184Z,2.97
2018-02-18T09:00:11.665Z,2.90
2018-02-18T09:02:39.148Z,2.70
2018-02-18T09:05:07.370Z,2.63
2018-02-18T09:07:34.858Z,2.70
2018-02-18T09:10:02.485Z,3.07
2018-02-18T09:12:29.937Z,2.63
2018-02-18T09:14:57.410Z,2.40
2018-02-18T09:17:24.948Z,2.80
2018-02-18T09:19:52.451Z,4.07
2018-02-18T09:22:20.138Z,2.80
2018-02-18T09:24:48.363Z,2.83
2018-02-18T09:27:15.829Z,3.23
2018-02-18T09:29:43.302Z,2.70
2018-02-18T09:32:10.758Z,2.80
2018-02-18T09:34:38.335Z,3.10
2018-02-18T09:37:05.781Z,2.63
2018-02-18T09:39:33.258Z,2.70
2018-02-18T09:42:01.501Z,5.40
2018-02-18T09:44:29.221Z,3.20
2018-02-18T09:46:56.723Z,2.57
2018-02-18T09:49:24.967Z,3.10
2018-02-18T09:51:52.462Z,2.80
2018-02-18T09:54:20.134Z,3.00
2018-02-18T09:56:47.608Z,2.73
2018-02-18T09:59:15.838Z,2.93
2018-02-18T10:01:43.313Z,3.00
2018-02-18T10:04:10.819Z,3.57
2018-02-18T10:06:38.321Z,3.10
2018-02-18T10:09:05.783Z,3.10
2018-02-18T10:11:33.238Z,3.50
2018-02-18T10:14:00.722Z,2.83
2018-02-18T10:16:35.770Z,3.03
2018-02-18T10:19:04.015Z,3.13
2018-02-18T10:21:31.570Z,2.60
2018-02-18T10:23:59.084Z,3.33
2018-02-18T10:26:27.304Z,3.10
2018-02-18T10:28:54.770Z,4.70
2018-02-18T10:31:22.251Z,6.97
2018-02-18T10:33:52.292Z,4.70
2018-02-18T10:36:20.013Z,4.97
2018-02-18T10:38:47.514Z,3.93
2018-02-18T10:41:15.314Z,4.00
2018-02-18T10:43:42.779Z,2.90
2018-02-18T10:46:10.935Z,3.47
2018-02-18T10:48:38.710Z,3.70
2018-02-18T10:51:06.213Z,3.20
2018-02-18T10:53:34.446Z,3.57
2018-02-18T10:56:01.946Z,2.83
2018-02-18T10:58:29.481Z,2.77
2018-02-18T11:00:56.955Z,3.17
2018-02-18T11:03:25.427Z,3.20
2018-02-18T11:05:53.706Z,2.73
2018-02-18T11:08:22.040Z,3.63
2018-02-18T11:10:49.519Z,3.40
2018-02-18T11:13:16.988Z,4.13
2018-02-18T11:15:44.468Z,5.40
2018-02-18T11:18:11.944Z,5.20
2018-02-18T11:20:40.181Z,3.43
2018-02-18T11:23:07.649Z,2.70
2018-02-18T11:25:35.139Z,2.67
2018-02-18T11:28:03.448Z,3.20
2018-02-18T11:30:30.915Z,3.77
2018-02-18T11:32:58.373Z,2.67
2018-02-18T11:35:25.840Z,2.60
2018-02-18T11:37:53.314Z,2.67
2018-02-18T11:40:20.785Z,3.13
2018-02-18T11:42:48.238Z,3.03
2018-02-18T11:45:15.720Z,3.00
2018-02-18T11:47:43.958Z,3.13
2018-02-18T11:50:11.437Z,3.10
2018-02-18T11:52:38.900Z,3.37
2018-02-18T11:55:06.359Z,3.80
2018-02-18T11:57:33.838Z,3.77
2018-02-18T12:00:02.059Z,2.67
2018-02-18T12:02:29.528Z,3.07
2018-02-18T12:04:56.987Z,2.93
2018-02-18T12:07:24.460Z,3.70
2018-02-18T12:09:51.922Z,5.73
2018-02-18T12:12:19.380Z,4.53
2018-02-18T12:14:46.840Z,3.53
2018-02-18T12:17:14.311Z,3.57
2018-02-18T12:19:42.538Z,4.10
2018-02-18T12:22:10.018Z,3.73
2018-02-18T12:24:37.480Z,3.20
2018-02-18T12:27:04.959Z,3.67
2018-02-18T12:29:36.236Z,3.17
2018-02-18T12:32:03.703Z,3.30
2018-02-18T12:34:31.192Z,3.20
2018-02-18T12:36:58.671Z,3.30
2018-02-18T12:39:26.902Z,3.27
2018-02-18T12:41:54.370Z,2.93
2018-02-18T12:44:21.834Z,2.50
2018-02-18T12:46:49.439Z,3.47
2018-02-18T12:49:17.670Z,3.17
2018-02-18T12:51:45.155Z,4.03
2018-02-18T12:54:12.619Z,3.30
2018-02-18T12:56:40.114Z,3.00
2018-02-18T12:59:07.596Z,3.13
2018-02-18T13:01:35.048Z,3.40
2018-02-18T13:04:02.516Z,3.00
2018-02-18T13:06:30.169Z,2.80
2018-02-18T13:08:57.669Z,2.73
2018-02-18T13:11:25.902Z,3.00
2018-02-18T13:13:53.389Z,2.83
2018-02-18T13:16:20.864Z,3.00
2018-02-18T13:18:49.096Z,2.80
2018-02-18T13:21:17.458Z,5.50
2018-02-18T13:23:44.924Z,4.50
2018-02-18T13:26:12.384Z,3.73
2018-02-18T13:28:39.862Z,3.43
2018-02-18T13:31:07.345Z,3.40
2018-02-18T13:33:34.843Z,3.70
2018-02-18T13:36:02.314Z,3.20
2018-02-18T13:38:29.783Z,3.47
2018-02-18T13:40:58.370Z,3.40
2018-02-18T13:43:25.847Z,3.40
2018-02-18T13:45:53.320Z,3.27
2018-02-18T13:48:20.800Z,3.33
2018-02-18T13:50:49.026Z,3.40
2018-02-18T13:53:16.491Z,3.63
2018-02-18T13:55:43.946Z,3.67
2018-02-18T13:58:11.407Z,3.30
2018-02-18T14:00:38.871Z,3.40
2018-02-18T14:03:06.343Z,2.67
2018-02-18T14:05:33.799Z,3.10
2018-02-18T14:08:01.266Z,3.33
2018-02-18T14:10:29.496Z,3.80
2018-02-18T14:12:56.957Z,3.10
2018-02-18T14:15:24.440Z,3.27
2018-02-18T14:17:51.914Z,3.50
2018-02-18T14:20:20.145Z,4.00
2018-02-18T14:22:47.728Z,3.17
2018-02-18T14:25:15.192Z,3.53
2018-02-18T14:27:42.671Z,3.33
2018-02-18T14:30:10.920Z,3.80
2018-02-18T14:32:38.396Z,4.23
2018-02-18T14:35:06.677Z,4.60
2018-02-18T14:37:34.901Z,4.67
2018-02-18T14:40:02.371Z,4.60
2018-02-18T14:42:41.600Z,4.70
2018-02-18T14:45:20.903Z,4.17
2018-02-18T14:48:01.195Z,4.20
2018-02-18T14:50:40.611Z,4.13
2018-02-18T14:53:19.994Z,4.00
2018-02-18T14:55:59.399Z,4.10
2018-02-18T14:58:26.870Z,4.43
2018-02-18T15:00:54.329Z,4.40
2018-02-18T15:03:21.926Z,4.90
2018-02-18T15:05:50.163Z,4.10
2018-02-18T15:08:17.620Z,3.93
2018-02-18T15:10:45.092Z,3.70
2018-02-18T15:13:12.598Z,3.40
2018-02-18T15:15:41.927Z,3.17
2018-02-18T15:18:09.399Z,3.10
2018-02-18T15:20:36.873Z,4.10
2018-02-18T15:23:04.339Z,4.27
2018-02-18T15:25:31.889Z,4.00
2018-02-18T15:27:59.377Z,4.00
2018-02-18T15:30:27.611Z,4.00
2018-02-18T15:32:55.083Z,4.27
2018-02-18T15:35:22.543Z,4.33
2018-02-18T15:37:50.031Z,3.73
2018-02-18T15:40:18.262Z,3.30
2018-02-18T15:42:45.728Z,4.00
2018-02-18T15:45:13.185Z,3.47
2018-02-18T15:47:40.662Z,3.40
2018-02-18T15:50:08.125Z,2.97
2018-02-18T15:52:35.615Z,3.73
2018-02-18T15:55:03.089Z,3.80
2018-02-18T15:57:30.561Z,3.23
2018-02-18T15:59:58.030Z,3.57
2018-02-18T16:02:25.530Z,3.53
2018-02-18T16:04:53.765Z,2.67
2018-02-18T16:07:21.286Z,3.63
2018-02-18T16:09:48.781Z,2.70
2018-02-18T16:12:16.247Z,3.07
2018-02-18T16:14:43.721Z,2.90
2018-02-18T16:17:11.195Z,2.90
2018-02-18T16:19:39.419Z,3.17
2018-02-18T16:22:06.904Z,2.70
2018-02-18T16:24:34.364Z,3.10
2018-02-18T16:27:01.839Z,3.07
2018-02-18T16:29:29.291Z,3.53
2018-02-18T16:31:56.766Z,3.80
2018-02-18T16:34:24.992Z,3.97
2018-02-18T16:36:52.452Z,4.43
2018-02-18T16:39:19.915Z,4.77
2018-02-18T16:41:47.374Z,4.63
2018-02-18T16:44:14.848Z,5.00
2018-02-18T16:46:42.310Z,4.40
2018-02-18T16:49:09.770Z,4.53
2018-02-18T16:51:37.253Z,4.70
2018-02-18T16:54:05.491Z,4.93
2018-02-18T16:56:32.955Z,4.37
2018-02-18T16:59:00.431Z,4.70
2018-02-18T17:01:28.667Z,5.93
2018-02-18T17:03:56.171Z,5.37
2018-02-18T17:06:24.412Z,4.83
2018-02-18T17:08:51.889Z,5.27
2018-02-18T17:11:19.361Z,4.80
2018-02-18T17:13:47.593Z,4.97
2018-02-18T17:16:15.075Z,5.43
2018-02-18T17:18:42.561Z,4.80
2018-02-18T17:21:10.806Z,4.43
2018-02-18T17:23:38.283Z,5.43
2018-02-18T17:26:06.519Z,5.57
2018-02-18T17:28:34.019Z,5.07
2018-02-18T17:31:02.253Z,4.87
2018-02-18T17:33:29.738Z,4.97
2018-02-18T17:35:57.210Z,4.90
2018-02-18T17:38:24.692Z,4.57
2018-02-18T17:40:52.177Z,4.67
2018-02-18T17:43:20.418Z,4.23
2018-02-18T17:45:48.659Z,4.97
2018-02-18T17:48:16.133Z,4.43
2018-02-18T17:50:43.594Z,4.20
2018-02-18T17:53:26.171Z,4.07
2018-02-18T17:55:53.675Z,4.20
2018-02-18T17:58:21.917Z,4.30
2018-02-18T18:00:57.692Z,3.70
2018-02-18T18:03:25.914Z,4.03
2018-02-18T18:05:53.382Z,3.83
2018-02-18T18:08:20.843Z,3.77
2018-02-18T18:10:48.318Z,4.00
2018-02-18T18:13:15.803Z,4.07
2018-02-18T18:15:44.051Z,4.07
2018-02-18T18:18:11.539Z,3.90
2018-02-18T18:20:39.783Z,2.97
2018-02-18T18:23:07.251Z,3.23
2018-02-18T18:25:34.753Z,3.53
2018-02-18T18:28:02.241Z,3.75
2018-02-18T18:30:29.714Z,3.78
2018-02-18T18:32:57.191Z,4.15
2018-02-18T18:35:24.667Z,3.80
2018-02-18T18:37:52.905Z,4.25
2018-02-18T18:40:20.392Z,3.50
2018-02-18T18:42:48.635Z,3.90
2018-02-18T18:45:16.102Z,4.00
2018-02-18T18:47:43.580Z,4.05
2018-02-18T18:50:11.040Z,4.25
2018-02-18T18:52:38.507Z,3.62
2018-02-18T18:55:07.554Z,4.40
2018-02-18T18:57:35.057Z,4.35
2018-02-18T19:00:03.279Z,4.07
2018-02-18T19:02:30.752Z,4.05
2018-02-18T19:04:58.220Z,4.80
2018-02-18T19:07:25.695Z,4.47
2018-02-18T19:09:53.158Z,4.00
2018-02-18T19:12:22.429Z,4.28
2018-02-18T19:14:49.961Z,4.25
2018-02-18T19:17:17.437Z,4.62
2018-02-18T19:19:44.903Z,4.15
2018-02-18T19:22:12.372Z,3.65
2018-02-18T19:24:39.830Z,3.87
2018-02-18T19:27:07.314Z,3.50
2018-02-18T19:29:35.544Z,3.83
2018-02-18T19:32:03.045Z,4.25
2018-02-18T19:34:31.287Z,5.10
2018-02-18T19:36:58.753Z,6.87
2018-02-18T19:39:26.254Z,7.10
2018-02-18T19:41:54.490Z,6.18
2018-02-18T19:44:21.946Z,5.93
2018-02-18T19:46:49.411Z,5.68
2018-02-18T19:49:16.874Z,4.70
2018-02-18T19:51:44.355Z,4.83
2018-02-18T19:54:12.620Z,5.00
2018-02-18T19:56:40.850Z,4.78
2018-02-18T19:59:08.335Z,5.68
2018-02-18T20:01:35.819Z,5.15
2018-02-18T20:04:04.061Z,5.40
2018-02-18T20:06:31.518Z,4.78
2018-02-18T20:08:59.007Z,4.45
2018-02-18T20:11:27.241Z,4.78
2018-02-18T20:13:54.712Z,4.35
2018-02-18T20:16:22.170Z,5.20
2018-02-18T20:18:49.648Z,4.87
2018-02-18T20:21:17.128Z,3.75
2018-02-18T20:23:45.362Z,4.50
2018-02-18T20:26:12.824Z,4.97
2018-02-18T20:28:40.302Z,4.45
2018-02-18T20:31:07.767Z,4.50
2018-02-18T20:33:35.996Z,5.00
2018-02-18T20:36:03.470Z,3.83
2018-02-18T20:38:30.947Z,3.92
2018-02-18T20:40:58.407Z,3.90
2018-02-18T20:43:25.873Z,4.20
2018-02-18T20:45:53.444Z,4.45
2018-02-18T20:48:21.667Z,3.67
2018-02-18T20:50:49.142Z,4.23
2018-02-18T20:53:16.606Z,4.20
2018-02-18T20:55:44.070Z,4.03
2018-02-18T20:58:11.533Z,4.35
2018-02-18T21:00:39.003Z,4.18
2018-02-18T21:03:07.235Z,4.68
2018-02-18T21:05:34.716Z,4.53
2018-02-18T21:08:02.168Z,4.70
2018-02-18T21:10:29.635Z,6.80
2018-02-18T21:12:57.102Z,6.45
2018-02-18T21:15:24.588Z,6.00
2018-02-18T21:17:52.072Z,6.03
2018-02-18T21:20:19.538Z,5.28
2018-02-18T21:22:47.010Z,5.75
2018-02-18T21:25:14.504Z,5.00
2018-02-18T21:27:42.727Z,4.80
2018-02-18T21:30:10.194Z,4.55
2018-02-18T21:32:37.659Z,4.22
2018-02-18T21:35:05.142Z,5.28
2018-02-18T21:37:32.608Z,5.25
2018-02-18T21:40:00.844Z,4.63
2018-02-18T21:42:28.324Z,4.85
2018-02-18T21:44:55.781Z,4.75
2018-02-18T21:47:23.258Z,5.00
2018-02-18T21:49:51.493Z,5.10
2018-02-18T21:52:18.988Z,5.80
2018-02-18T21:54:46.446Z,5.12
2018-02-18T21:57:14.680Z,5.03
2018-02-18T21:59:42.147Z,5.65
2018-02-18T22:02:09.610Z,5.15
2018-02-18T22:04:37.080Z,5.15
2018-02-18T22:07:04.562Z,5.05
2018-02-18T22:09:32.803Z,4.50
2018-02-18T22:12:00.272Z,4.70
2018-02-18T22:14:27.738Z,5.30
2018-02-18T22:16:55.212Z,6.75
2018-02-18T22:19:23.447Z,5.87
2018-02-18T22:21:50.915Z,5.32
2018-02-18T22:24:18.384Z,5.05
2018-02-18T22:26:45.859Z,5.40
2018-02-18T22:29:14.083Z,5.30
2018-02-18T22:31:41.553Z,4.72
2018-02-18T22:34:09.024Z,4.47
2018-02-18T22:36:36.495Z,6.40
2018-02-18T22:39:03.971Z,6.80
2018-02-18T22:41:32.211Z,5.72
2018-02-18T22:43:59.680Z,4.80
2018-02-18T22:46:27.146Z,5.53
2018-02-18T22:48:54.619Z,4.82
2018-02-18T22:51:22.842Z,5.15
2018-02-18T22:53:50.318Z,5.35
2018-02-18T22:56:17.784Z,4.80
2018-02-18T22:58:45.258Z,5.20
2018-02-18T23:01:12.722Z,4.22
2018-02-18T23:03:40.975Z,5.10
2018-02-18T23:06:08.427Z,4.57
2018-02-18T23:08:35.898Z,4.75
2018-02-18T23:11:03.373Z,4.53
2018-02-18T23:13:31.605Z,4.40
2018-02-18T23:15:59.075Z,4.30
2018-02-18T23:18:26.545Z,4.30
2018-02-18T23:21:05.848Z,4.50
2018-02-18T23:23:33.309Z,4.20
2018-02-18T23:26:00.776Z,3.90
2018-02-18T23:28:29.146Z,4.47
2018-02-18T23:30:56.611Z,3.95
2018-02-18T23:33:24.083Z,4.37
2018-02-18T23:35:51.538Z,4.57
2018-02-18T23:38:19.031Z,4.32
2018-02-18T23:40:47.256Z,4.47
2018-02-18T23:43:14.735Z,4.35
2018-02-18T23:45:42.207Z,4.03
2018-02-18T23:48:09.669Z,4.37
2018-02-18T23:50:37.144Z,4.45
2018-02-18T23:53:05.374Z,4.75
2018-02-18T23:55:32.840Z,4.82
2018-02-18T23:58:00.318Z,4.30
